Station Historical Data
Daily Summary for February 4, 2018 Units:  English    Metric   Both
« Previous Day
Next Day »
Daily Weekly Monthly Yearly Custom
  High: Low: Average:
Temperature: TemperatureF °F 20.5 °F 33.7 °F
Dew Point: DewpointF °F 12.1 °F 27.5 °F
Humidity: Humidity% 37% 80%
Wind Speed: WindSpeedMPHmph 0.0mph 5.6mph
Wind Gust: WindSpeedGustMPHmph - -
Wind- - SW
Pressure: PressureIn in 29.72 in -
Precipitation: 0.00 in    
Historical Graphs
 
 
Tabular Data for February 4, 2018
Time Temperature Dew Point Pressure Wind Wind Speed Wind Gust Humidity Rainfall Rate (Hourly)
TemperatureF °F DewpointF °F PressureIn in Calm     Humidity% HourlyPrecipIn in
00:04 33.3 °F 14.2 °F 29.94 in SSW 7.0 mph 16.0 mph 45% 0.00 in
00:09 33.5 °F 13.9 °F 29.93 in SSW 6.0 mph 15.0 mph 44% 0.00 in
00:14 33.7 °F 13.5 °F 29.93 in SSW 6.0 mph 15.0 mph 43% 0.00 in
00:19 33.7 °F 14.1 °F 29.93 in SSW 6.0 mph 13.0 mph 44% 0.00 in
00:24 33.6 °F 14.5 °F 29.93 in SSW 5.0 mph 11.0 mph 45% 0.00 in
00:29 33.5 °F 14.9 °F 29.93 in SW 8.0 mph 10.0 mph 46% 0.00 in
00:34 33.6 °F 14.5 °F 29.92 in SSW 10.0 mph 12.0 mph 45% 0.00 in
00:39 33.8 °F 14.7 °F 29.92 in South 2.0 mph 11.0 mph 45% 0.00 in
00:44 34.0 °F 14.3 °F 29.92 in SW 7.0 mph 10.0 mph 44% 0.00 in
00:49 34.3 °F 13.6 °F 29.91 in West 8.0 mph 13.0 mph 42% 0.00 in
00:54 34.5 °F 13.7 °F 29.91 in SW 8.0 mph 11.0 mph 42% 0.00 in
00:59 34.6 °F 13.8 °F 29.91 in SSW 6.0 mph 11.0 mph 42% 0.00 in
01:05 35.1 °F 13.7 °F 29.91 in SSW 7.0 mph 21.0 mph 41% 0.00 in
01:10 35.6 °F 13.6 °F 29.91 in South 9.0 mph 18.0 mph 40% 0.00 in
01:15 35.7 °F 13.1 °F 29.91 in WSW 16.0 mph 21.0 mph 39% 0.00 in
01:20 35.8 °F 12.6 °F 29.90 in WSW 7.0 mph 20.0 mph 38% 0.00 in
01:25 35.8 °F 12.6 °F 29.90 in South 15.0 mph 22.0 mph 38% 0.00 in
01:30 35.9 °F 12.1 °F 29.90 in South 8.0 mph 19.0 mph 37% 0.00 in
01:35 35.9 °F 12.1 °F 29.90 in WSW 13.0 mph 20.0 mph 37% 0.00 in
01:40 35.9 °F 12.1 °F 29.90 in South 6.0 mph 20.0 mph 37% 0.00 in
01:45 35.9 °F 12.1 °F 29.90 in SSW 10.0 mph 20.0 mph 37% 0.00 in
01:50 35.9 °F 12.1 °F 29.89 in SSW 9.0 mph 22.0 mph 37% 0.00 in
01:55 35.9 °F 12.1 °F 29.90 in SSW 8.0 mph 22.0 mph 37% 0.00 in
02:00 36.0 °F 12.2 °F 29.89 in SSW 8.0 mph 15.0 mph 37% 0.00 in
02:05 36.0 °F 12.2 °F 29.89 in SSW 8.0 mph 18.0 mph 37% 0.00 in
02:10 36.0 °F 12.2 °F 29.89 in SSW 8.0 mph 18.0 mph 37% 0.00 in
02:15 36.0 °F 13.4 °F 29.89 in SSW 4.0 mph 13.0 mph 39% 0.00 in
02:20 36.1 °F 13.5 °F 29.89 in SSW 5.0 mph 15.0 mph 39% 0.00 in
02:25 36.2 °F 14.7 °F 29.89 in SW 12.0 mph 14.0 mph 41% 0.00 in
02:30 36.2 °F 15.3 °F 29.90 in WSW 9.0 mph 15.0 mph 42% 0.00 in
02:35 36.4 °F 15.5 °F 29.89 in SSW 8.0 mph 15.0 mph 42% 0.00 in
02:40 36.4 °F 16.5 °F 29.90 in SW 6.0 mph 14.0 mph 44% 0.00 in
02:45 36.5 °F 16.1 °F 29.89 in SSE 8.0 mph 17.0 mph 43% 0.00 in
02:50 36.7 °F 16.3 °F 29.89 in SSW 9.0 mph 18.0 mph 43% 0.00 in
02:55 36.7 °F 16.8 °F 29.89 in SSW 8.0 mph 18.0 mph 44% 0.00 in
03:00 36.8 °F 17.4 °F 29.89 in SSW 7.0 mph 21.0 mph 45% 0.00 in
03:05 36.9 °F 17.5 °F 29.89 in SSW 8.0 mph 21.0 mph 45% 0.00 in
03:10 37.1 °F 17.7 °F 29.88 in SSW 9.0 mph 18.0 mph 45% 0.00 in
03:15 37.2 °F 17.8 °F 29.89 in SW 9.0 mph 15.0 mph 45% 0.00 in
03:20 37.3 °F 18.4 °F 29.89 in SW 7.0 mph 19.0 mph 46% 0.00 in
03:25 37.4 °F 19.0 °F 29.89 in SW 8.0 mph 19.0 mph 47% 0.00 in
03:30 37.5 °F 19.6 °F 29.88 in SSW 8.0 mph 16.0 mph 48% 0.00 in
03:35 37.6 °F 19.7 °F 29.89 in West 6.0 mph 16.0 mph 48% 0.00 in
03:40 37.7 °F 20.2 °F 29.89 in SW 6.0 mph 14.0 mph 49% 0.00 in
03:45 37.8 °F 21.3 °F 29.88 in SW 9.0 mph 19.0 mph 51% 0.00 in
03:50 38.1 °F 22.5 °F 29.89 in SW 11.0 mph 21.0 mph 53% 0.00 in
03:55 38.4 °F 22.7 °F 29.89 in SW 10.0 mph 21.0 mph 53% 0.00 in
04:00 38.5 °F 23.3 °F 29.89 in SW 10.0 mph 20.0 mph 54% 0.00 in
04:05 38.6 °F 23.8 °F 29.89 in SW 6.0 mph 21.0 mph 55% 0.00 in
04:14 38.0 °F 26.9 °F 29.90 in SW 9.0 mph 23.0 mph 64% 0.00 in
04:20 37.4 °F 27.1 °F 29.90 in SW 19.0 mph 23.0 mph 66% 0.00 in
04:25 36.5 °F 28.0 °F 29.90 in SW 10.0 mph 23.0 mph 71% 0.00 in
04:30 35.7 °F 28.2 °F 29.90 in SW 11.0 mph 23.0 mph 74% 0.00 in
04:35 35.1 °F 28.6 °F 29.90 in South 6.0 mph 19.0 mph 77% 0.00 in
04:40 34.4 °F 28.2 °F 29.90 in SW 8.0 mph 20.0 mph 78% 0.00 in
04:45 34.0 °F 28.5 °F 29.90 in WNW 11.0 mph 16.0 mph 80% 0.00 in
04:50 33.8 °F 28.6 °F 29.89 in West 13.0 mph 17.0 mph 81% 0.00 in
04:55 33.7 °F 28.8 °F 29.89 in West 4.0 mph 20.0 mph 82% 0.00 in
05:00 33.7 °F 29.1 °F 29.89 in SW 10.0 mph 20.0 mph 83% 0.00 in
05:05 33.7 °F 29.4 °F 29.89 in SW 9.0 mph 19.0 mph 84% 0.00 in
05:10 33.6 °F 29.3 °F 29.90 in SW 10.0 mph 19.0 mph 84% 0.00 in
05:15 33.5 °F 29.5 °F 29.90 in SW 9.0 mph 20.0 mph 85% 0.00 in
05:20 33.5 °F 29.5 °F 29.90 in SW 9.0 mph 20.0 mph 85% 0.00 in
05:25 33.5 °F 29.8 °F 29.90 in SW 9.0 mph 18.0 mph 86% 0.00 in
05:29 33.5 °F 29.8 °F 29.90 in SW 10.0 mph 15.0 mph 86% 0.00 in
05:34 33.4 °F 29.7 °F 29.89 in WSW 5.0 mph 15.0 mph 86% 0.00 in
05:40 33.5 °F 30.0 °F 29.89 in SSW 8.0 mph 17.0 mph 87% 0.00 in
05:45 33.5 °F 30.0 °F 29.89 in WSW 7.0 mph 15.0 mph 87% 0.00 in
05:50 33.5 °F 30.0 °F 29.89 in WSW 8.0 mph 11.0 mph 87% 0.00 in
05:55 33.5 °F 30.0 °F 29.89 in SW 5.0 mph 13.0 mph 87% 0.00 in
05:59 33.5 °F 30.0 °F 29.89 in SW 7.0 mph 13.0 mph 87% 0.00 in
06:05 33.5 °F 30.0 °F 29.89 in SW 6.0 mph 13.0 mph 87% 0.01 in
06:10 33.5 °F 30.0 °F 29.89 in SW 7.0 mph 14.0 mph 87% 0.01 in
06:15 33.5 °F 30.3 °F 29.89 in SW 6.0 mph 14.0 mph 88% 0.01 in
06:20 33.5 °F 30.3 °F 29.89 in SW 5.0 mph 11.0 mph 88% 0.01 in
06:25 33.5 °F 30.3 °F 29.89 in SSW 5.0 mph 11.0 mph 88% 0.01 in
06:30 33.5 °F 30.3 °F 29.89 in SW 4.0 mph 11.0 mph 88% 0.01 in
06:34 33.5 °F 30.3 °F 29.89 in SSW 5.0 mph 11.0 mph 88% 0.01 in
06:39 33.5 °F 30.3 °F 29.88 in South 4.0 mph 10.0 mph 88% 0.01 in
06:44 33.5 °F 30.3 °F 29.88 in WSW 3.0 mph 12.0 mph 88% 0.01 in
06:49 33.5 °F 30.3 °F 29.89 in South 3.0 mph 14.0 mph 88% 0.01 in
06:55 33.5 °F 30.3 °F 29.89 in SW 7.0 mph 15.0 mph 88% 0.01 in
07:00 33.5 °F 30.3 °F 29.88 in SSW 6.0 mph 16.0 mph 88% 0.01 in
07:04 33.5 °F 30.3 °F 29.89 in SSW 6.0 mph 16.0 mph 88% 0.00 in
07:10 33.4 °F 30.2 °F 29.89 in SSW 6.0 mph 11.0 mph 88% 0.00 in
07:15 33.4 °F 30.2 °F 29.88 in SSW 6.0 mph 12.0 mph 88% 0.00 in
07:20 33.4 °F 30.2 °F 29.89 in SSW 6.0 mph 14.0 mph 88% 0.00 in
07:25 33.5 °F 30.3 °F 29.89 in WSW 4.0 mph 13.0 mph 88% 0.00 in
07:30 33.4 °F 30.2 °F 29.89 in WSW 3.0 mph 15.0 mph 88% 0.00 in
07:34 33.4 °F 30.2 °F 29.88 in SSW 5.0 mph 15.0 mph 88% 0.00 in
07:39 33.5 °F 30.6 °F 29.88 in SSW 6.0 mph 13.0 mph 89% 0.00 in
07:44 33.4 °F 30.5 °F 29.88 in SSW 8.0 mph 10.0 mph 89% 0.00 in
07:49 33.5 °F 30.6 °F 29.88 in SSW 4.0 mph 10.0 mph 89% 0.00 in
07:54 33.5 °F 30.6 °F 29.88 in SW 4.0 mph 14.0 mph 89% 0.00 in
07:59 33.6 °F 30.7 °F 29.88 in SSW 5.0 mph 11.0 mph 89% 0.00 in
08:05 33.7 °F 30.8 °F 29.88 in SSW 5.0 mph 12.0 mph 89% 0.00 in
08:09 33.7 °F 30.8 °F 29.88 in SSW 6.0 mph 12.0 mph 89% 0.00 in
08:15 33.7 °F 30.8 °F 29.88 in SSW 6.0 mph 11.0 mph 89% 0.00 in
08:20 33.7 °F 30.8 °F 29.88 in SW 6.0 mph 13.0 mph 89% 0.00 in
08:25 33.7 °F 30.8 °F 29.88 in SW 6.0 mph 13.0 mph 89% 0.00 in
08:30 33.7 °F 30.8 °F 29.88 in SSW 5.0 mph 10.0 mph 89% 0.00 in
08:35 33.8 °F 30.9 °F 29.88 in SW 4.0 mph 10.0 mph 89% 0.00 in
08:39 33.9 °F 31.0 °F 29.88 in SSW 5.0 mph 10.0 mph 89% 0.00 in
08:44 33.9 °F 31.0 °F 29.87 in SSW 7.0 mph 12.0 mph 89% 0.00 in
08:49 33.9 °F 31.0 °F 29.87 in South 4.0 mph 10.0 mph 89% 0.00 in
08:54 33.9 °F 31.0 °F 29.87 in South 4.0 mph 11.0 mph 89% 0.00 in
08:59 33.9 °F 31.0 °F 29.87 in SSW 5.0 mph 9.0 mph 89% 0.00 in
09:04 33.9 °F 31.0 °F 29.87 in SW 8.0 mph 8.0 mph 89% 0.00 in
09:09 33.9 °F 31.0 °F 29.87 in SW 3.0 mph 9.0 mph 89% 0.00 in
09:14 34.1 °F 31.2 °F 29.87 in SW 4.0 mph 10.0 mph 89% 0.00 in
09:20 34.3 °F 31.4 °F 29.87 in SSW 4.0 mph 10.0 mph 89% 0.00 in
09:25 34.4 °F 31.5 °F 29.87 in SSW 4.0 mph 8.0 mph 89% 0.00 in
09:30 34.5 °F 31.6 °F 29.86 in SW 5.0 mph 10.0 mph 89% 0.00 in
09:35 34.6 °F 31.7 °F 29.87 in SW 8.0 mph 8.0 mph 89% 0.00 in
09:40 34.6 °F 31.7 °F 29.87 in SSW 2.0 mph 12.0 mph 89% 0.00 in
09:44 34.7 °F 31.8 °F 29.86 in SSW 5.0 mph 12.0 mph 89% 0.00 in
09:49 34.7 °F 31.8 °F 29.86 in SSW 4.0 mph 10.0 mph 89% 0.00 in
09:54 34.9 °F 32.0 °F 29.86 in WSW 2.0 mph 9.0 mph 89% 0.00 in
09:59 35.0 °F 32.1 °F 29.86 in WSW 6.0 mph 10.0 mph 89% 0.00 in
10:05 35.1 °F 31.9 °F 29.86 in SW 8.0 mph 11.0 mph 88% 0.00 in
10:09 35.2 °F 32.0 °F 29.86 in SSE 5.0 mph 12.0 mph 88% 0.00 in
10:14 35.3 °F 32.1 °F 29.85 in SSW 5.0 mph 12.0 mph 88% 0.00 in
10:19 35.4 °F 32.2 °F 29.85 in SSW 5.0 mph 11.0 mph 88% 0.00 in
10:25 35.5 °F 32.3 °F 29.85 in SSW 5.0 mph 13.0 mph 88% 0.00 in
10:30 35.6 °F 32.4 °F 29.85 in SSW 5.0 mph 13.0 mph 88% 0.00 in
10:35 35.7 °F 32.5 °F 29.85 in SW 5.0 mph 9.0 mph 88% 0.00 in
10:40 35.8 °F 32.3 °F 29.85 in SSW 5.0 mph 14.0 mph 87% 0.00 in
10:45 35.9 °F 32.4 °F 29.85 in SW 5.0 mph 12.0 mph 87% 0.00 in
10:49 35.9 °F 32.4 °F 29.85 in SSW 6.0 mph 14.0 mph 87% 0.00 in
10:54 35.9 °F 32.4 °F 29.85 in SSW 6.0 mph 14.0 mph 87% 0.00 in
10:59 36.0 °F 32.5 °F 29.85 in WSW 7.0 mph 12.0 mph 87% 0.00 in
11:04 36.1 °F 32.6 °F 29.85 in SW 4.0 mph 13.0 mph 87% 0.01 in
11:09 36.1 °F 32.6 °F 29.85 in SW 6.0 mph 11.0 mph 87% 0.01 in
11:14 36.2 °F 32.4 °F 29.85 in South 5.0 mph 8.0 mph 86% 0.02 in
11:19 36.2 °F 32.4 °F 29.84 in SSW 2.0 mph 8.0 mph 86% 0.02 in
11:24 36.2 °F 32.4 °F 29.84 in SSW 5.0 mph 13.0 mph 86% 0.02 in
11:29 36.3 °F 32.5 °F 29.84 in SSW 6.0 mph 13.0 mph 86% 0.02 in
11:34 36.4 °F 32.6 °F 29.83 in SW 5.0 mph 10.0 mph 86% 0.02 in
11:39 36.5 °F 32.7 °F 29.83 in SW 4.0 mph 13.0 mph 86% 0.02 in
11:45 36.6 °F 32.8 °F 29.83 in SW 6.0 mph 9.0 mph 86% 0.02 in
11:50 36.7 °F 32.9 °F 29.83 in SSW 16.0 mph 17.0 mph 86% 0.02 in
11:54 36.6 °F 32.8 °F 29.82 in SSW 7.0 mph 17.0 mph 86% 0.03 in
11:59 36.6 °F 32.8 °F 29.82 in SSW 6.0 mph 17.0 mph 86% 0.03 in
12:04 36.5 °F 32.4 °F 29.81 in SSW 5.0 mph 11.0 mph 85% 0.02 in
12:09 36.5 °F 32.7 °F 29.81 in SW 5.0 mph 11.0 mph 86% 0.02 in
12:15 36.4 °F 32.3 °F 29.81 in SW 4.0 mph 9.0 mph 85% 0.01 in
12:19 36.4 °F 32.3 °F 29.80 in WSW 2.0 mph 9.0 mph 85% 0.01 in
12:24 36.3 °F 32.2 °F 29.80 in SW 5.0 mph 7.0 mph 85% 0.01 in
12:29 36.2 °F 32.1 °F 29.80 in SW 4.0 mph 10.0 mph 85% 0.01 in
12:34 36.3 °F 32.2 °F 29.80 in WSW 5.0 mph 8.0 mph 85% 0.01 in
12:39 36.3 °F 32.2 °F 29.79 in SW 1.0 mph 10.0 mph 85% 0.01 in
12:45 36.3 °F 32.2 °F 29.79 in SW 3.0 mph 8.0 mph 85% 0.02 in
12:49 36.3 °F 32.2 °F 29.79 in SSW 3.0 mph 6.0 mph 85% 0.02 in
12:55 36.3 °F 32.2 °F 29.79 in SW 4.0 mph 8.0 mph 85% 0.01 in
12:59 36.2 °F 32.1 °F 29.78 in SW 4.0 mph 11.0 mph 85% 0.01 in
13:04 36.2 °F 32.4 °F 29.78 in SW 5.0 mph 11.0 mph 86% 0.01 in
13:09 36.2 °F 32.4 °F 29.78 in SW 4.0 mph 9.0 mph 86% 0.01 in
13:14 36.1 °F 32.3 °F 29.78 in SW 4.0 mph 9.0 mph 86% 0.02 in
13:19 35.9 °F 32.1 °F 29.78 in SW 6.0 mph 9.0 mph 86% 0.02 in
13:24 35.8 °F 32.0 °F 29.77 in SW 4.0 mph 7.0 mph 86% 0.02 in
13:29 35.7 °F 32.2 °F 29.77 in SW 3.0 mph 7.0 mph 87% 0.02 in
13:34 35.6 °F 32.1 °F 29.77 in SW 3.0 mph 7.0 mph 87% 0.03 in
13:39 35.6 °F 32.1 °F 29.77 in South 5.0 mph 8.0 mph 87% 0.03 in
13:44 35.6 °F 32.1 °F 29.76 in SW 5.0 mph 9.0 mph 87% 0.02 in
13:49 35.6 °F 32.1 °F 29.76 in SSW 6.0 mph 9.0 mph 87% 0.02 in
13:55 35.6 °F 32.4 °F 29.76 in WNW 4.0 mph 7.0 mph 88% 0.02 in
13:59 35.7 °F 32.5 °F 29.76 in SW 9.0 mph 10.0 mph 88% 0.03 in
14:04 35.7 °F 32.5 °F 29.76 in SSW 5.0 mph 12.0 mph 88% 0.03 in
14:09 35.6 °F 32.4 °F 29.75 in SSW 5.0 mph 12.0 mph 88% 0.03 in
14:14 35.7 °F 32.5 °F 29.75 in SW 4.0 mph 9.0 mph 88% 0.02 in
14:20 35.7 °F 32.5 °F 29.75 in SW 4.0 mph 9.0 mph 88% 0.02 in
14:25 35.7 °F 32.5 °F 29.75 in SW 4.0 mph 10.0 mph 88% 0.03 in
14:30 35.7 °F 32.5 °F 29.75 in SW 4.0 mph 10.0 mph 88% 0.02 in
14:34 35.6 °F 32.4 °F 29.75 in SSW 5.0 mph 11.0 mph 88% 0.02 in
14:39 35.7 °F 32.5 °F 29.75 in SSW 4.0 mph 6.0 mph 88% 0.02 in
14:44 35.7 °F 32.5 °F 29.75 in SSW 4.0 mph 8.0 mph 88% 0.03 in
14:49 35.6 °F 32.4 °F 29.74 in SW 4.0 mph 9.0 mph 88% 0.03 in
14:54 35.5 °F 32.3 °F 29.74 in SW 4.0 mph 10.0 mph 88% 0.03 in
14:59 35.5 °F 32.3 °F 29.74 in SW 2.0 mph 9.0 mph 88% 0.02 in
15:04 35.5 °F 32.3 °F 29.74 in WSW 4.0 mph 8.0 mph 88% 0.02 in
15:09 35.4 °F 32.5 °F 29.74 in SW 3.0 mph 8.0 mph 89% 0.02 in
15:14 35.4 °F 32.5 °F 29.74 in SW 4.0 mph 9.0 mph 89% 0.02 in
15:19 35.4 °F 32.2 °F 29.74 in SW 4.0 mph 9.0 mph 88% 0.03 in
15:25 35.3 °F 32.1 °F 29.74 in Calm   8.0 mph 88% 0.02 in
15:30 35.3 °F 32.4 °F 29.74 in SW 4.0 mph 10.0 mph 89% 0.02 in
15:39 35.1 °F 32.2 °F 29.74 in SW 4.0 mph 10.0 mph 89% 0.03 in
15:44 35.0 °F 32.1 °F 29.74 in SW 2.0 mph 8.0 mph 89% 0.02 in
15:49 35.0 °F 32.1 °F 29.74 in SW 1.0 mph 4.0 mph 89% 0.02 in
15:55 35.0 °F 32.1 °F 29.74 in SW 2.0 mph 5.0 mph 89% 0.02 in
16:00 35.0 °F 32.1 °F 29.74 in SW 2.0 mph 6.0 mph 89% 0.02 in
16:09 34.9 °F 32.0 °F 29.75 in West 3.0 mph 6.0 mph 89% 0.03 in
16:14 34.9 °F 32.0 °F 29.75 in WSW 3.0 mph 6.0 mph 89% 0.03 in
16:19 34.8 °F 31.9 °F 29.75 in WSW 3.0 mph 5.0 mph 89% 0.02 in
16:24 34.8 °F 31.9 °F 29.75 in WSW 2.0 mph 5.0 mph 89% 0.02 in
16:29 34.7 °F 32.1 °F 29.75 in WSW 2.0 mph 7.0 mph 90% 0.02 in
16:34 34.7 °F 31.8 °F 29.75 in WSW 4.0 mph 7.0 mph 89% 0.01 in
16:40 34.6 °F 31.7 °F 29.75 in SW 4.0 mph 8.0 mph 89% 0.01 in
16:44 34.6 °F 31.7 °F 29.74 in SW 3.0 mph 8.0 mph 89% 0.01 in
16:49 34.5 °F 31.9 °F 29.74 in WSW 3.0 mph 6.0 mph 90% 0.01 in
16:54 34.5 °F 31.9 °F 29.74 in WSW 3.0 mph 5.0 mph 90% 0.01 in
16:59 34.5 °F 31.9 °F 29.74 in SW 4.0 mph 5.0 mph 90% 0.01 in
17:04 34.4 °F 31.8 °F 29.74 in SW 3.0 mph 4.0 mph 90% 0.00 in
17:09 34.4 °F 31.8 °F 29.74 in Calm   3.0 mph 90% 0.00 in
17:14 34.4 °F 31.8 °F 29.74 in Calm     90% 0.00 in
17:19 34.4 °F 31.8 °F 29.74 in SW 1.0 mph 4.0 mph 90% 0.00 in
17:24 34.5 °F 31.9 °F 29.74 in SW 1.0 mph 4.0 mph 90% 0.00 in
17:29 34.5 °F 31.9 °F 29.74 in SW 2.0 mph 5.0 mph 90% 0.00 in
17:34 34.5 °F 31.9 °F 29.74 in SW 1.0 mph 5.0 mph 90% 0.00 in
17:39 34.6 °F 32.0 °F 29.73 in SW 1.0 mph 4.0 mph 90% 0.00 in
17:44 34.6 °F 32.0 °F 29.73 in SW 2.0 mph 6.0 mph 90% 0.00 in
17:45 34.6 °F 32.0 °F 29.73 in SW 2.0 mph 6.0 mph 90% 0.00 in
17:49 34.6 °F 32.0 °F 29.73 in SW 3.0 mph 6.0 mph 90% 0.00 in
17:54 34.7 °F 32.1 °F 29.73 in WSW 4.0 mph 7.0 mph 90% 0.00 in
17:59 34.7 °F 32.1 °F 29.73 in WSW 2.0 mph 5.0 mph 90% 0.00 in
18:04 34.7 °F 32.1 °F 29.73 in SW 5.0 mph 7.0 mph 90% 0.01 in
18:09 34.7 °F 32.1 °F 29.73 in WSW 6.0 mph 10.0 mph 90% 0.01 in
18:14 34.6 °F 32.0 °F 29.73 in SW 7.0 mph 12.0 mph 90% 0.01 in
18:19 34.6 °F 32.0 °F 29.73 in West 4.0 mph 10.0 mph 90% 0.01 in
18:24 34.5 °F 31.9 °F 29.73 in SW 5.0 mph 10.0 mph 90% 0.01 in
18:29 34.4 °F 31.8 °F 29.73 in WSW 3.0 mph 7.0 mph 90% 0.01 in
18:34 34.5 °F 31.9 °F 29.73 in WSW 5.0 mph 9.0 mph 90% 0.01 in
18:39 34.4 °F 31.8 °F 29.74 in WSW 4.0 mph 9.0 mph 90% 0.01 in
18:44 34.4 °F 31.8 °F 29.74 in WSW 4.0 mph 9.0 mph 90% 0.01 in
18:49 34.4 °F 31.8 °F 29.74 in WSW 3.0 mph 10.0 mph 90% 0.01 in
18:54 34.4 °F 31.8 °F 29.74 in WSW 4.0 mph 10.0 mph 90% 0.01 in
18:59 34.3 °F 31.7 °F 29.73 in WSW 4.0 mph 10.0 mph 90% 0.01 in
19:04 34.3 °F 31.7 °F 29.73 in WNW 3.0 mph 7.0 mph 90% 0.00 in
19:09 34.1 °F 31.5 °F 29.73 in WSW 6.0 mph 8.0 mph 90% 0.00 in
19:14 34.0 °F 31.1 °F 29.73 in WSW 5.0 mph 8.0 mph 89% 0.00 in
19:19 33.9 °F 31.0 °F 29.73 in West 5.0 mph 8.0 mph 89% 0.00 in
19:24 33.8 °F 30.9 °F 29.73 in WSW 2.0 mph 8.0 mph 89% 0.00 in
19:29 33.8 °F 30.9 °F 29.73 in WSW 4.0 mph 8.0 mph 89% 0.00 in
19:34 33.8 °F 30.9 °F 29.73 in WSW 4.0 mph 7.0 mph 89% 0.00 in
19:39 33.9 °F 31.3 °F 29.73 in WSW 4.0 mph 7.0 mph 90% 0.00 in
19:44 33.8 °F 31.2 °F 29.72 in WSW 4.0 mph 7.0 mph 90% 0.00 in
19:49 33.9 °F 31.3 °F 29.73 in WSW 3.0 mph 7.0 mph 90% 0.00 in
19:54 33.8 °F 31.2 °F 29.73 in WSW 4.0 mph 8.0 mph 90% 0.00 in
19:59 33.8 °F 31.2 °F 29.73 in WSW 5.0 mph 9.0 mph 90% 0.00 in
20:04 33.8 °F 31.2 °F 29.73 in WSW 4.0 mph 10.0 mph 90% 0.00 in
20:09 33.8 °F 31.2 °F 29.73 in WSW 5.0 mph 10.0 mph 90% 0.00 in
20:14 33.8 °F 31.2 °F 29.73 in WSW 5.0 mph 13.0 mph 90% 0.00 in
20:19 33.7 °F 31.1 °F 29.73 in WSW 5.0 mph 13.0 mph 90% 0.00 in
20:24 33.7 °F 31.1 °F 29.73 in WSW 4.0 mph 12.0 mph 90% 0.00 in
20:29 33.6 °F 31.0 °F 29.73 in WSW 5.0 mph 10.0 mph 90% 0.00 in
20:34 33.5 °F 30.9 °F 29.73 in WSW 6.0 mph 11.0 mph 90% 0.00 in
20:39 33.5 °F 30.9 °F 29.73 in WSW 6.0 mph 12.0 mph 90% 0.00 in
20:44 33.5 °F 30.9 °F 29.73 in SSW 6.0 mph 11.0 mph 90% 0.00 in
20:49 33.4 °F 30.8 °F 29.73 in West 2.0 mph 13.0 mph 90% 0.00 in
20:54 33.3 °F 30.7 °F 29.73 in WSW 8.0 mph 11.0 mph 90% 0.00 in
20:59 33.3 °F 30.7 °F 29.73 in West 5.0 mph 11.0 mph 90% 0.00 in
21:04 33.2 °F 30.6 °F 29.72 in WSW 5.0 mph 11.0 mph 90% 0.00 in
21:09 33.2 °F 30.6 °F 29.73 in WSW 5.0 mph 10.0 mph 90% 0.00 in
21:14 33.2 °F 30.6 °F 29.73 in WSW 5.0 mph 9.0 mph 90% 0.00 in
21:19 33.2 °F 30.6 °F 29.73 in WSW 4.0 mph 9.0 mph 90% 0.00 in
21:24 33.2 °F 30.6 °F 29.74 in West 5.0 mph 12.0 mph 90% 0.00 in
21:29 32.4 °F 29.5 °F 29.75 in WNW 6.0 mph 13.0 mph 89% 0.00 in
21:34 30.9 °F 28.0 °F 29.75 in NNW 7.0 mph 13.0 mph 89% 0.00 in
21:39 30.1 °F 27.3 °F 29.75 in WNW 6.0 mph 14.0 mph 89% 0.00 in
21:44 29.4 °F 26.6 °F 29.75 in NNW 4.0 mph 13.0 mph 89% 0.00 in
21:49 28.7 °F 25.9 °F 29.75 in NW 3.0 mph 10.0 mph 89% 0.00 in
21:54 28.2 °F 25.4 °F 29.75 in NNW 4.0 mph 9.0 mph 89% 0.00 in
21:59 27.6 °F 24.5 °F 29.76 in WNW 5.0 mph 14.0 mph 88% 0.00 in
22:04 27.0 °F 23.9 °F 29.76 in NW 14.0 mph 16.0 mph 88% 0.00 in
22:09 26.5 °F 23.7 °F 29.76 in NNW 7.0 mph 14.0 mph 89% 0.00 in
22:14 26.2 °F 23.1 °F 29.76 in NNW 7.0 mph 14.0 mph 88% 0.00 in
22:19 26.0 °F 22.9 °F 29.77 in NNW 6.0 mph 13.0 mph 88% 0.00 in
22:24 25.8 °F 23.0 °F 29.77 in NNW 5.0 mph 15.0 mph 89% 0.00 in
22:29 25.3 °F 22.2 °F 29.78 in NNW 6.0 mph 15.0 mph 88% 0.00 in
22:34 24.8 °F 21.8 °F 29.78 in NW 7.0 mph 15.0 mph 88% 0.00 in
22:39 24.3 °F 21.3 °F 29.79 in North 3.0 mph 19.0 mph 88% 0.00 in
22:44 23.8 °F 20.8 °F 29.79 in North 8.0 mph 17.0 mph 88% 0.00 in
22:49 23.6 °F 20.6 °F 29.80 in NNW 9.0 mph 11.0 mph 88% 0.00 in
22:54 23.0 °F 20.0 °F 29.80 in NNW 5.0 mph 22.0 mph 88% 0.00 in
22:59 22.4 °F 19.1 °F 29.81 in NNW 16.0 mph 16.0 mph 87% 0.00 in
23:04 22.1 °F 19.1 °F 29.82 in North 7.0 mph 16.0 mph 88% 0.00 in
23:09 22.0 °F 19.0 °F 29.82 in North 7.0 mph 8.0 mph 88% 0.00 in
23:14 21.7 °F 18.4 °F 29.82 in NW 5.0 mph 12.0 mph 87% 0.00 in
23:19 21.5 °F 18.5 °F 29.82 in NNW 6.0 mph 13.0 mph 88% 0.00 in
23:24 21.3 °F 18.0 °F 29.82 in NNW 7.0 mph 13.0 mph 87% 0.00 in
23:29 21.1 °F 18.1 °F 29.82 in NNW 6.0 mph 15.0 mph 88% 0.00 in
23:34 21.0 °F 18.0 °F 29.82 in NW 6.0 mph 15.0 mph 88% 0.00 in
23:39 20.8 °F 17.5 °F 29.83 in NNW 7.0 mph 17.0 mph 87% 0.00 in
23:44 20.7 °F 17.4 °F 29.83 in North 5.0 mph 14.0 mph 87% 0.00 in
23:49 20.6 °F 17.6 °F 29.83 in NNW 6.0 mph 14.0 mph 88% 0.00 in
23:54 20.5 °F 17.5 °F 29.84 in NNW 5.0 mph 12.0 mph 88% 0.00 in
23:59 20.5 °F 17.5 °F 29.85 in NW 6.0 mph 14.0 mph 88% 0.00 in
Buffalo, New York, USA
Compliments of Weather Underground - 2.5 mb